sensor_id;sensor_type;location;lat;lon;timestamp;temperature;humidity
73572;DHT22;61854;48.510;-2.770;2023-10-13T00:00:28;19.60;99.90
73572;DHT22;61854;48.510;-2.770;2023-10-13T00:03:06;19.60;99.90
73572;DHT22;61854;48.510;-2.770;2023-10-13T00:05:32;19.60;99.90
73572;DHT22;61854;48.510;-2.770;2023-10-13T00:07:59;19.60;99.90
73572;DHT22;61854;48.510;-2.770;2023-10-13T00:10:31;19.60;99.90
73572;DHT22;61854;48.510;-2.770;2023-10-13T00:12:59;19.70;99.90
73572;DHT22;61854;48.510;-2.770;2023-10-13T00:15:47;19.60;99.90
73572;DHT22;61854;48.510;-2.770;2023-10-13T00:18:26;19.60;99.90
73572;DHT22;61854;48.510;-2.770;2023-10-13T00:20:53;19.60;99.90
73572;DHT22;61854;48.510;-2.770;2023-10-13T00:23:22;19.60;99.90
73572;DHT22;61854;48.510;-2.770;2023-10-13T00:25:49;19.70;99.90
73572;DHT22;61854;48.510;-2.770;2023-10-13T00:28:28;19.60;99.90
73572;DHT22;61854;48.510;-2.770;2023-10-13T00:31:01;19.60;99.90
73572;DHT22;61854;48.510;-2.770;2023-10-13T00:33:37;19.50;99.90
73572;DHT22;61854;48.510;-2.770;2023-10-13T00:36:04;19.50;99.90
73572;DHT22;61854;48.510;-2.770;2023-10-13T00:38:30;19.50;99.90
73572;DHT22;61854;48.510;-2.770;2023-10-13T00:40:56;19.50;99.90
73572;DHT22;61854;48.510;-2.770;2023-10-13T00:43:28;19.60;99.90
73572;DHT22;61854;48.510;-2.770;2023-10-13T00:46:00;19.60;99.90
73572;DHT22;61854;48.510;-2.770;2023-10-13T00:48:31;19.60;99.90
73572;DHT22;61854;48.510;-2.770;2023-10-13T00:51:06;19.50;99.90
73572;DHT22;61854;48.510;-2.770;2023-10-13T00:53:36;19.60;99.90
73572;DHT22;61854;48.510;-2.770;2023-10-13T00:56:10;19.70;99.90
73572;DHT22;61854;48.510;-2.770;2023-10-13T00:58:46;19.60;99.90
73572;DHT22;61854;48.510;-2.770;2023-10-13T01:01:12;19.60;99.90
73572;DHT22;61854;48.510;-2.770;2023-10-13T01:03:51;19.60;99.90
73572;DHT22;61854;48.510;-2.770;2023-10-13T01:06:21;19.60;99.90
73572;DHT22;61854;48.510;-2.770;2023-10-13T01:09:01;19.50;99.90
73572;DHT22;61854;48.510;-2.770;2023-10-13T01:11:47;19.50;99.90
73572;DHT22;61854;48.510;-2.770;2023-10-13T01:14:16;19.50;99.90
73572;DHT22;61854;48.510;-2.770;2023-10-13T01:16:43;19.60;99.90
73572;DHT22;61854;48.510;-2.770;2023-10-13T01:19:16;19.50;99.90
73572;DHT22;61854;48.510;-2.770;2023-10-13T01:22:04;19.50;99.90
73572;DHT22;61854;48.510;-2.770;2023-10-13T01:24:32;19.60;99.90
73572;DHT22;61854;48.510;-2.770;2023-10-13T01:27:06;19.60;99.90
73572;DHT22;61854;48.510;-2.770;2023-10-13T01:29:46;19.60;99.90
73572;DHT22;61854;48.510;-2.770;2023-10-13T01:32:19;19.60;99.90
73572;DHT22;61854;48.510;-2.770;2023-10-13T01:34:45;19.60;99.90
73572;DHT22;61854;48.510;-2.770;2023-10-13T01:37:11;19.50;99.90
73572;DHT22;61854;48.510;-2.770;2023-10-13T01:39:37;19.50;99.90
73572;DHT22;61854;48.510;-2.770;2023-10-13T01:42:03;19.50;99.90
73572;DHT22;61854;48.510;-2.770;2023-10-13T01:44:29;19.60;99.90
73572;DHT22;61854;48.510;-2.770;2023-10-13T01:47:04;19.60;99.90
73572;DHT22;61854;48.510;-2.770;2023-10-13T01:49:35;19.60;99.90
73572;DHT22;61854;48.510;-2.770;2023-10-13T01:52:21;19.60;99.90
73572;DHT22;61854;48.510;-2.770;2023-10-13T01:54:48;19.70;99.90
73572;DHT22;61854;48.510;-2.770;2023-10-13T01:57:15;19.70;99.90
73572;DHT22;61854;48.510;-2.770;2023-10-13T01:59:44;19.70;99.90
73572;DHT22;61854;48.510;-2.770;2023-10-13T02:02:11;19.90;99.90
73572;DHT22;61854;48.510;-2.770;2023-10-13T02:04:40;19.90;99.90
73572;DHT22;61854;48.510;-2.770;2023-10-13T02:07:21;19.80;99.90
73572;DHT22;61854;48.510;-2.770;2023-10-13T02:09:52;19.80;99.90
73572;DHT22;61854;48.510;-2.770;2023-10-13T02:12:20;19.80;99.90
73572;DHT22;61854;48.510;-2.770;2023-10-13T02:14:51;19.80;99.90
73572;DHT22;61854;48.510;-2.770;2023-10-13T02:17:17;19.80;99.90
73572;DHT22;61854;48.510;-2.770;2023-10-13T02:19:46;19.80;99.90
73572;DHT22;61854;48.510;-2.770;2023-10-13T02:22:13;19.80;99.90
73572;DHT22;61854;48.510;-2.770;2023-10-13T02:24:52;19.80;99.90
73572;DHT22;61854;48.510;-2.770;2023-10-13T02:27:18;19.80;99.90
73572;DHT22;61854;48.510;-2.770;2023-10-13T02:29:49;19.80;99.90
73572;DHT22;61854;48.510;-2.770;2023-10-13T02:32:15;19.80;99.90
73572;DHT22;61854;48.510;-2.770;2023-10-13T02:34:47;19.80;99.90
73572;DHT22;61854;48.510;-2.770;2023-10-13T02:37:13;19.60;99.90
73572;DHT22;61854;48.510;-2.770;2023-10-13T02:39:42;19.80;99.90
73572;DHT22;61854;48.510;-2.770;2023-10-13T02:42:08;19.80;99.90
73572;DHT22;61854;48.510;-2.770;2023-10-13T02:44:34;19.70;99.90
73572;DHT22;61854;48.510;-2.770;2023-10-13T02:47:02;19.70;99.90
73572;DHT22;61854;48.510;-2.770;2023-10-13T02:49:38;19.60;99.90
73572;DHT22;61854;48.510;-2.770;2023-10-13T02:52:09;19.60;99.90
73572;DHT22;61854;48.510;-2.770;2023-10-13T02:54:38;19.60;99.90
73572;DHT22;61854;48.510;-2.770;2023-10-13T02:57:08;19.70;99.90
73572;DHT22;61854;48.510;-2.770;2023-10-13T02:59:34;19.70;99.90
73572;DHT22;61854;48.510;-2.770;2023-10-13T03:02:03;19.60;99.90
73572;DHT22;61854;48.510;-2.770;2023-10-13T03:04:53;19.60;99.90
73572;DHT22;61854;48.510;-2.770;2023-10-13T03:07:28;19.60;99.90
73572;DHT22;61854;48.510;-2.770;2023-10-13T03:09:54;19.60;99.90
73572;DHT22;61854;48.510;-2.770;2023-10-13T03:12:23;19.70;99.90
73572;DHT22;61854;48.510;-2.770;2023-10-13T03:14:58;19.60;99.90
73572;DHT22;61854;48.510;-2.770;2023-10-13T03:17:38;19.60;99.90
73572;DHT22;61854;48.510;-2.770;2023-10-13T03:20:13;19.60;99.90
73572;DHT22;61854;48.510;-2.770;2023-10-13T03:22:39;19.70;99.90
73572;DHT22;61854;48.510;-2.770;2023-10-13T03:25:05;19.60;99.90
73572;DHT22;61854;48.510;-2.770;2023-10-13T03:27:33;19.50;99.90
73572;DHT22;61854;48.510;-2.770;2023-10-13T03:30:17;19.50;99.90
73572;DHT22;61854;48.510;-2.770;2023-10-13T03:32:43;19.50;99.90
73572;DHT22;61854;48.510;-2.770;2023-10-13T03:35:12;19.40;99.90
73572;DHT22;61854;48.510;-2.770;2023-10-13T03:37:51;19.40;99.90
73572;DHT22;61854;48.510;-2.770;2023-10-13T03:40:17;19.60;99.90
73572;DHT22;61854;48.510;-2.770;2023-10-13T03:42:56;19.50;99.90
73572;DHT22;61854;48.510;-2.770;2023-10-13T03:45:36;19.50;99.90
73572;DHT22;61854;48.510;-2.770;2023-10-13T03:48:05;19.50;99.90
73572;DHT22;61854;48.510;-2.770;2023-10-13T03:50:38;19.40;99.90
73572;DHT22;61854;48.510;-2.770;2023-10-13T03:53:12;19.50;99.90
73572;DHT22;61854;48.510;-2.770;2023-10-13T03:55:38;19.50;99.90
73572;DHT22;61854;48.510;-2.770;2023-10-13T03:58:04;19.50;99.90
73572;DHT22;61854;48.510;-2.770;2023-10-13T04:00:30;19.50;99.90
73572;DHT22;61854;48.510;-2.770;2023-10-13T04:02:57;19.50;99.90
73572;DHT22;61854;48.510;-2.770;2023-10-13T04:05:31;19.50;99.90
73572;DHT22;61854;48.510;-2.770;2023-10-13T04:08:05;19.40;99.90
73572;DHT22;61854;48.510;-2.770;2023-10-13T04:10:49;19.30;99.90
73572;DHT22;61854;48.510;-2.770;2023-10-13T04:13:18;19.40;99.90
73572;DHT22;61854;48.510;-2.770;2023-10-13T04:16:04;19.50;99.90
73572;DHT22;61854;48.510;-2.770;2023-10-13T04:18:49;19.50;99.90
73572;DHT22;61854;48.510;-2.770;2023-10-13T04:21:34;19.50;99.90
73572;DHT22;61854;48.510;-2.770;2023-10-13T04:24:08;19.40;99.90
73572;DHT22;61854;48.510;-2.770;2023-10-13T04:26:43;19.40;99.90
73572;DHT22;61854;48.510;-2.770;2023-10-13T04:29:27;19.40;99.90
73572;DHT22;61854;48.510;-2.770;2023-10-13T04:32:12;19.40;99.90
73572;DHT22;61854;48.510;-2.770;2023-10-13T04:34:41;19.40;99.90
73572;DHT22;61854;48.510;-2.770;2023-10-13T04:37:14;19.50;99.90
73572;DHT22;61854;48.510;-2.770;2023-10-13T04:39:56;19.40;99.90
73572;DHT22;61854;48.510;-2.770;2023-10-13T04:42:37;19.50;99.90
73572;DHT22;61854;48.510;-2.770;2023-10-13T04:45:17;19.50;99.90
73572;DHT22;61854;48.510;-2.770;2023-10-13T04:47:59;19.40;99.90
73572;DHT22;61854;48.510;-2.770;2023-10-13T04:50:58;19.40;99.90
73572;DHT22;61854;48.510;-2.770;2023-10-13T04:53:44;19.40;99.90
73572;DHT22;61854;48.510;-2.770;2023-10-13T04:56:28;19.50;99.90
73572;DHT22;61854;48.510;-2.770;2023-10-13T04:59:12;19.50;99.90
73572;DHT22;61854;48.510;-2.770;2023-10-13T05:01:43;19.50;99.90
73572;DHT22;61854;48.510;-2.770;2023-10-13T05:04:15;19.40;99.90
73572;DHT22;61854;48.510;-2.770;2023-10-13T05:06:55;19.40;99.90
73572;DHT22;61854;48.510;-2.770;2023-10-13T05:09:39;19.50;99.90
73572;DHT22;61854;48.510;-2.770;2023-10-13T05:12:24;19.50;99.90
73572;DHT22;61854;48.510;-2.770;2023-10-13T05:15:08;19.60;99.90
73572;DHT22;61854;48.510;-2.770;2023-10-13T05:17:52;19.60;99.90
73572;DHT22;61854;48.510;-2.770;2023-10-13T05:20:36;19.70;99.90
73572;DHT22;61854;48.510;-2.770;2023-10-13T05:23:20;19.80;99.90
73572;DHT22;61854;48.510;-2.770;2023-10-13T05:26:04;19.80;99.90
73572;DHT22;61854;48.510;-2.770;2023-10-13T05:28:48;19.80;99.90
73572;DHT22;61854;48.510;-2.770;2023-10-13T05:31:33;19.90;99.90
73572;DHT22;61854;48.510;-2.770;2023-10-13T05:34:17;19.80;99.90
73572;DHT22;61854;48.510;-2.770;2023-10-13T05:37:01;19.80;99.90
73572;DHT22;61854;48.510;-2.770;2023-10-13T05:39:45;19.90;99.90
73572;DHT22;61854;48.510;-2.770;2023-10-13T05:42:29;19.80;99.90
73572;DHT22;61854;48.510;-2.770;2023-10-13T05:45:13;19.90;99.90
73572;DHT22;61854;48.510;-2.770;2023-10-13T05:47:41;19.90;99.90
73572;DHT22;61854;48.510;-2.770;2023-10-13T05:50:16;19.90;99.90
73572;DHT22;61854;48.510;-2.770;2023-10-13T05:52:49;19.90;99.90
73572;DHT22;61854;48.510;-2.770;2023-10-13T05:55:26;19.90;99.90
73572;DHT22;61854;48.510;-2.770;2023-10-13T05:58:10;19.90;99.90
73572;DHT22;61854;48.510;-2.770;2023-10-13T06:00:55;19.90;99.90
73572;DHT22;61854;48.510;-2.770;2023-10-13T06:03:39;20.10;99.90
73572;DHT22;61854;48.510;-2.770;2023-10-13T06:06:23;20.20;99.40
73572;DHT22;61854;48.510;-2.770;2023-10-13T06:09:08;20.20;99.00
73572;DHT22;61854;48.510;-2.770;2023-10-13T06:11:52;20.30;98.90
73572;DHT22;61854;48.510;-2.770;2023-10-13T06:14:36;20.40;98.70
73572;DHT22;61854;48.510;-2.770;2023-10-13T06:17:20;20.60;98.70
73572;DHT22;61854;48.510;-2.770;2023-10-13T06:20:05;20.70;98.40
73572;DHT22;61854;48.510;-2.770;2023-10-13T06:22:50;20.80;98.60
73572;DHT22;61854;48.510;-2.770;2023-10-13T06:25:34;20.90;98.70
73572;DHT22;61854;48.510;-2.770;2023-10-13T06:28:18;20.90;98.70
73572;DHT22;61854;48.510;-2.770;2023-10-13T06:31:04;21.00;98.60
73572;DHT22;61854;48.510;-2.770;2023-10-13T06:33:36;20.90;99.00
73572;DHT22;61854;48.510;-2.770;2023-10-13T06:36:05;20.90;99.40
73572;DHT22;61854;48.510;-2.770;2023-10-13T06:38:35;21.10;98.80
73572;DHT22;61854;48.510;-2.770;2023-10-13T06:41:05;21.10;99.00
73572;DHT22;61854;48.510;-2.770;2023-10-13T06:43:37;21.10;99.00
73572;DHT22;61854;48.510;-2.770;2023-10-13T06:46:11;21.20;98.90
73572;DHT22;61854;48.510;-2.770;2023-10-13T06:48:49;21.20;99.10
73572;DHT22;61854;48.510;-2.770;2023-10-13T06:51:19;21.20;99.90
73572;DHT22;61854;48.510;-2.770;2023-10-13T06:53:48;21.20;99.90
73572;DHT22;61854;48.510;-2.770;2023-10-13T06:56:15;21.20;99.90
73572;DHT22;61854;48.510;-2.770;2023-10-13T06:58:57;21.30;99.90
73572;DHT22;61854;48.510;-2.770;2023-10-13T07:01:29;21.30;99.70
73572;DHT22;61854;48.510;-2.770;2023-10-13T07:03:55;21.30;99.90
73572;DHT22;61854;48.510;-2.770;2023-10-13T07:06:27;21.30;99.90
73572;DHT22;61854;48.510;-2.770;2023-10-13T07:08:52;21.30;99.90
73572;DHT22;61854;48.510;-2.770;2023-10-13T07:11:23;21.20;99.90
73572;DHT22;61854;48.510;-2.770;2023-10-13T07:14:02;21.20;99.90
73572;DHT22;61854;48.510;-2.770;2023-10-13T07:16:56;21.20;99.90
73572;DHT22;61854;48.510;-2.770;2023-10-13T07:19:28;21.30;99.90
73572;DHT22;61854;48.510;-2.770;2023-10-13T07:21:58;21.40;99.90
73572;DHT22;61854;48.510;-2.770;2023-10-13T07:24:27;21.30;99.90
73572;DHT22;61854;48.510;-2.770;2023-10-13T07:26:58;21.40;99.90
73572;DHT22;61854;48.510;-2.770;2023-10-13T07:29:33;21.30;99.90
73572;DHT22;61854;48.510;-2.770;2023-10-13T07:32:02;21.40;99.90
73572;DHT22;61854;48.510;-2.770;2023-10-13T07:34:31;21.40;99.90
73572;DHT22;61854;48.510;-2.770;2023-10-13T07:37:01;21.30;99.90
73572;DHT22;61854;48.510;-2.770;2023-10-13T07:39:30;21.40;99.90
73572;DHT22;61854;48.510;-2.770;2023-10-13T07:42:00;21.40;99.90
73572;DHT22;61854;48.510;-2.770;2023-10-13T07:44:40;21.40;99.90
73572;DHT22;61854;48.510;-2.770;2023-10-13T07:47:12;21.50;99.90
73572;DHT22;61854;48.510;-2.770;2023-10-13T07:49:39;21.50;99.90
73572;DHT22;61854;48.510;-2.770;2023-10-13T07:52:07;21.60;99.90
73572;DHT22;61854;48.510;-2.770;2023-10-13T07:54:46;21.80;99.90
73572;DHT22;61854;48.510;-2.770;2023-10-13T07:57:16;21.80;99.90
73572;DHT22;61854;48.510;-2.770;2023-10-13T07:59:42;21.70;99.90
73572;DHT22;61854;48.510;-2.770;2023-10-13T08:02:17;21.70;99.90
73572;DHT22;61854;48.510;-2.770;2023-10-13T08:05:08;21.60;99.90
73572;DHT22;61854;48.510;-2.770;2023-10-13T08:07:34;21.70;99.90
73572;DHT22;61854;48.510;-2.770;2023-10-13T08:10:05;21.50;99.90
73572;DHT22;61854;48.510;-2.770;2023-10-13T08:12:34;21.60;99.90
73572;DHT22;61854;48.510;-2.770;2023-10-13T08:15:03;21.60;99.90
73572;DHT22;61854;48.510;-2.770;2023-10-13T08:17:39;21.60;99.90
73572;DHT22;61854;48.510;-2.770;2023-10-13T08:20:09;21.60;99.90
73572;DHT22;61854;48.510;-2.770;2023-10-13T08:22:38;21.60;99.90
73572;DHT22;61854;48.510;-2.770;2023-10-13T08:25:04;21.70;99.90
73572;DHT22;61854;48.510;-2.770;2023-10-13T08:27:49;21.70;99.90
73572;DHT22;61854;48.510;-2.770;2023-10-13T08:30:33;21.80;99.90
73572;DHT22;61854;48.510;-2.770;2023-10-13T08:33:08;21.80;99.90
73572;DHT22;61854;48.510;-2.770;2023-10-13T08:35:46;21.90;99.90
73572;DHT22;61854;48.510;-2.770;2023-10-13T08:38:41;21.90;99.90
73572;DHT22;61854;48.510;-2.770;2023-10-13T08:41:16;21.90;99.90
73572;DHT22;61854;48.510;-2.770;2023-10-13T08:43:45;21.90;99.90
73572;DHT22;61854;48.510;-2.770;2023-10-13T08:46:16;22.10;99.90
73572;DHT22;61854;48.510;-2.770;2023-10-13T08:48:58;22.10;99.90
73572;DHT22;61854;48.510;-2.770;2023-10-13T08:51:36;22.10;99.90
73572;DHT22;61854;48.510;-2.770;2023-10-13T08:54:15;21.90;99.90
73572;DHT22;61854;48.510;-2.770;2023-10-13T08:57:01;21.90;99.90
73572;DHT22;61854;48.510;-2.770;2023-10-13T08:59:46;21.80;99.90
73572;DHT22;61854;48.510;-2.770;2023-10-13T09:02:23;21.70;99.90
73572;DHT22;61854;48.510;-2.770;2023-10-13T09:05:25;21.70;99.90
73572;DHT22;61854;48.510;-2.770;2023-10-13T09:08:07;21.70;99.90
73572;DHT22;61854;48.510;-2.770;2023-10-13T09:10:41;21.80;99.90
73572;DHT22;61854;48.510;-2.770;2023-10-13T09:13:10;21.80;99.90
73572;DHT22;61854;48.510;-2.770;2023-10-13T09:15:45;21.90;99.90
73572;DHT22;61854;48.510;-2.770;2023-10-13T09:18:26;21.90;99.90
73572;DHT22;61854;48.510;-2.770;2023-10-13T09:21:12;21.70;99.90
73572;DHT22;61854;48.510;-2.770;2023-10-13T09:23:56;21.70;99.90
73572;DHT22;61854;48.510;-2.770;2023-10-13T09:26:42;21.80;99.90
73572;DHT22;61854;48.510;-2.770;2023-10-13T09:29:20;21.80;99.90
73572;DHT22;61854;48.510;-2.770;2023-10-13T09:32:02;21.80;99.90
73572;DHT22;61854;48.510;-2.770;2023-10-13T09:34:28;21.70;99.90
73572;DHT22;61854;48.510;-2.770;2023-10-13T09:36:59;21.80;99.90
73572;DHT22;61854;48.510;-2.770;2023-10-13T09:39:28;21.80;99.90
73572;DHT22;61854;48.510;-2.770;2023-10-13T09:42:02;21.80;99.90
73572;DHT22;61854;48.510;-2.770;2023-10-13T09:44:29;22.10;99.90
73572;DHT22;61854;48.510;-2.770;2023-10-13T09:47:03;22.10;99.90
73572;DHT22;61854;48.510;-2.770;2023-10-13T09:49:44;22.30;99.90
73572;DHT22;61854;48.510;-2.770;2023-10-13T09:52:17;22.50;99.90
73572;DHT22;61854;48.510;-2.770;2023-10-13T09:55:09;22.50;99.90
73572;DHT22;61854;48.510;-2.770;2023-10-13T09:57:43;22.30;99.90
73572;DHT22;61854;48.510;-2.770;2023-10-13T10:00:18;22.30;99.90
73572;DHT22;61854;48.510;-2.770;2023-10-13T10:02:59;22.30;99.90
73572;DHT22;61854;48.510;-2.770;2023-10-13T10:05:43;22.20;99.90
73572;DHT22;61854;48.510;-2.770;2023-10-13T10:08:24;22.20;99.90
73572;DHT22;61854;48.510;-2.770;2023-10-13T10:14:13;22.30;99.90
73572;DHT22;61854;48.510;-2.770;2023-10-13T10:17:06;22.50;99.90
73572;DHT22;61854;48.510;-2.770;2023-10-13T10:22:13;22.40;99.90
73572;DHT22;61854;48.510;-2.770;2023-10-13T10:24:57;22.20;99.90
73572;DHT22;61854;48.510;-2.770;2023-10-13T10:27:25;22.20;99.90
73572;DHT22;61854;48.510;-2.770;2023-10-13T10:29:54;22.30;99.90
73572;DHT22;61854;48.510;-2.770;2023-10-13T10:32:19;22.20;99.90
73572;DHT22;61854;48.510;-2.770;2023-10-13T10:34:45;22.10;99.90
73572;DHT22;61854;48.510;-2.770;2023-10-13T10:37:11;22.00;99.90
73572;DHT22;61854;48.510;-2.770;2023-10-13T10:39:38;21.90;99.90
73572;DHT22;61854;48.510;-2.770;2023-10-13T10:42:15;21.80;99.90
73572;DHT22;61854;48.510;-2.770;2023-10-13T10:44:43;21.70;99.90
73572;DHT22;61854;48.510;-2.770;2023-10-13T10:47:12;21.50;99.90
73572;DHT22;61854;48.510;-2.770;2023-10-13T10:49:58;21.40;99.90
73572;DHT22;61854;48.510;-2.770;2023-10-13T10:52:27;21.50;99.90
73572;DHT22;61854;48.510;-2.770;2023-10-13T10:54:59;21.60;99.90
73572;DHT22;61854;48.510;-2.770;2023-10-13T10:57:25;21.80;99.90
73572;DHT22;61854;48.510;-2.770;2023-10-13T10:59:54;21.90;99.90
73572;DHT22;61854;48.510;-2.770;2023-10-13T11:02:56;22.10;99.90
73572;DHT22;61854;48.510;-2.770;2023-10-13T11:05:23;22.00;99.90
73572;DHT22;61854;48.510;-2.770;2023-10-13T11:07:54;21.90;99.90
73572;DHT22;61854;48.510;-2.770;2023-10-13T11:10:20;21.90;99.90
73572;DHT22;61854;48.510;-2.770;2023-10-13T11:12:56;21.90;99.90
73572;DHT22;61854;48.510;-2.770;2023-10-13T11:15:25;21.90;99.90
73572;DHT22;61854;48.510;-2.770;2023-10-13T11:18:00;22.00;99.90
73572;DHT22;61854;48.510;-2.770;2023-10-13T11:20:25;22.20;99.90
73572;DHT22;61854;48.510;-2.770;2023-10-13T11:22:51;22.30;99.90
73572;DHT22;61854;48.510;-2.770;2023-10-13T11:25:29;22.50;98.10
73572;DHT22;61854;48.510;-2.770;2023-10-13T11:28:09;22.40;97.70
73572;DHT22;61854;48.510;-2.770;2023-10-13T11:30:35;22.50;95.80
73572;DHT22;61854;48.510;-2.770;2023-10-13T11:33:05;22.30;96.30
73572;DHT22;61854;48.510;-2.770;2023-10-13T11:35:35;22.20;96.40
73572;DHT22;61854;48.510;-2.770;2023-10-13T11:38:23;22.20;95.50
73572;DHT22;61854;48.510;-2.770;2023-10-13T11:41:03;22.10;95.70
73572;DHT22;61854;48.510;-2.770;2023-10-13T11:43:32;22.20;96.30
73572;DHT22;61854;48.510;-2.770;2023-10-13T11:46:10;22.10;94.70
73572;DHT22;61854;48.510;-2.770;2023-10-13T11:48:36;21.90;95.90
73572;DHT22;61854;48.510;-2.770;2023-10-13T11:51:06;22.00;94.90
73572;DHT22;61854;48.510;-2.770;2023-10-13T11:53:35;22.10;93.90
73572;DHT22;61854;48.510;-2.770;2023-10-13T11:56:02;22.10;94.10
73572;DHT22;61854;48.510;-2.770;2023-10-13T11:58:37;22.10;94.40
73572;DHT22;61854;48.510;-2.770;2023-10-13T12:01:02;22.20;94.70
73572;DHT22;61854;48.510;-2.770;2023-10-13T12:03:48;22.30;94.50
73572;DHT22;61854;48.510;-2.770;2023-10-13T12:06:52;22.40;94.40
73572;DHT22;61854;48.510;-2.770;2023-10-13T12:09:36;22.40;94.60
73572;DHT22;61854;48.510;-2.770;2023-10-13T12:12:21;22.40;94.10
73572;DHT22;61854;48.510;-2.770;2023-10-13T12:14:47;22.50;94.80
73572;DHT22;61854;48.510;-2.770;2023-10-13T12:17:19;22.70;92.10
73572;DHT22;61854;48.510;-2.770;2023-10-13T12:19:53;22.70;90.20
73572;DHT22;61854;48.510;-2.770;2023-10-13T12:22:20;22.80;87.30
73572;DHT22;61854;48.510;-2.770;2023-10-13T12:25:01;22.80;79.60
73572;DHT22;61854;48.510;-2.770;2023-10-13T12:27:31;22.70;77.20
73572;DHT22;61854;48.510;-2.770;2023-10-13T12:30:14;22.80;77.50
73572;DHT22;61854;48.510;-2.770;2023-10-13T12:32:48;22.80;78.70
73572;DHT22;61854;48.510;-2.770;2023-10-13T12:35:24;22.70;77.50
73572;DHT22;61854;48.510;-2.770;2023-10-13T12:37:55;22.90;79.20
73572;DHT22;61854;48.510;-2.770;2023-10-13T12:40:30;23.10;76.70
73572;DHT22;61854;48.510;-2.770;2023-10-13T12:43:14;23.30;76.20
73572;DHT22;61854;48.510;-2.770;2023-10-13T12:45:58;23.10;77.50
73572;DHT22;61854;48.510;-2.770;2023-10-13T12:48:43;23.20;78.30
73572;DHT22;61854;48.510;-2.770;2023-10-13T12:51:24;23.60;76.90
73572;DHT22;61854;48.510;-2.770;2023-10-13T12:53:56;23.70;73.20
73572;DHT22;61854;48.510;-2.770;2023-10-13T12:56:30;23.40;71.90
73572;DHT22;61854;48.510;-2.770;2023-10-13T12:58:56;23.20;72.70
73572;DHT22;61854;48.510;-2.770;2023-10-13T13:01:24;22.90;75.80
73572;DHT22;61854;48.510;-2.770;2023-10-13T13:03:51;22.70;79.10
73572;DHT22;61854;48.510;-2.770;2023-10-13T13:06:23;22.80;78.90
73572;DHT22;61854;48.510;-2.770;2023-10-13T13:08:56;22.80;80.90
73572;DHT22;61854;48.510;-2.770;2023-10-13T13:11:23;22.60;83.60
73572;DHT22;61854;48.510;-2.770;2023-10-13T13:13:49;22.60;84.00
73572;DHT22;61854;48.510;-2.770;2023-10-13T13:16:18;22.60;81.60
73572;DHT22;61854;48.510;-2.770;2023-10-13T13:18:45;22.60;81.50
73572;DHT22;61854;48.510;-2.770;2023-10-13T13:21:10;22.50;80.50
73572;DHT22;61854;48.510;-2.770;2023-10-13T13:23:38;22.40;81.30
73572;DHT22;61854;48.510;-2.770;2023-10-13T13:26:06;22.70;79.60
73572;DHT22;61854;48.510;-2.770;2023-10-13T13:28:42;22.60;79.60
73572;DHT22;61854;48.510;-2.770;2023-10-13T13:31:08;22.60;80.80
73572;DHT22;61854;48.510;-2.770;2023-10-13T13:33:34;22.30;83.30
73572;DHT22;61854;48.510;-2.770;2023-10-13T13:36:07;22.40;83.20
73572;DHT22;61854;48.510;-2.770;2023-10-13T13:38:33;22.30;83.90
73572;DHT22;61854;48.510;-2.770;2023-10-13T13:40:59;22.50;82.90
73572;DHT22;61854;48.510;-2.770;2023-10-13T13:43:27;22.30;82.90
73572;DHT22;61854;48.510;-2.770;2023-10-13T13:46:11;22.30;83.80
73572;DHT22;61854;48.510;-2.770;2023-10-13T13:48:38;22.50;82.70
73572;DHT22;61854;48.510;-2.770;2023-10-13T13:51:07;22.40;82.30
73572;DHT22;61854;48.510;-2.770;2023-10-13T13:53:43;22.50;79.10
73572;DHT22;61854;48.510;-2.770;2023-10-13T13:56:14;22.50;79.60
73572;DHT22;61854;48.510;-2.770;2023-10-13T13:58:48;22.60;79.10
73572;DHT22;61854;48.510;-2.770;2023-10-13T14:01:16;22.80;79.10
73572;DHT22;61854;48.510;-2.770;2023-10-13T14:03:46;23.60;75.50
73572;DHT22;61854;48.510;-2.770;2023-10-13T14:06:19;23.00;74.50
73572;DHT22;61854;48.510;-2.770;2023-10-13T14:08:56;22.70;77.80
73572;DHT22;61854;48.510;-2.770;2023-10-13T14:11:28;22.50;79.90
73572;DHT22;61854;48.510;-2.770;2023-10-13T14:14:15;22.10;83.80
73572;DHT22;61854;48.510;-2.770;2023-10-13T14:16:54;22.10;84.90
73572;DHT22;61854;48.510;-2.770;2023-10-13T14:19:28;22.20;84.50
73572;DHT22;61854;48.510;-2.770;2023-10-13T14:21:57;22.20;86.00
73572;DHT22;61854;48.510;-2.770;2023-10-13T14:24:23;22.00;87.00
73572;DHT22;61854;48.510;-2.770;2023-10-13T14:27:02;21.80;89.60
73572;DHT22;61854;48.510;-2.770;2023-10-13T14:29:41;21.80;89.90
73572;DHT22;61854;48.510;-2.770;2023-10-13T14:32:12;21.70;89.20
73572;DHT22;61854;48.510;-2.770;2023-10-13T14:34:44;21.70;89.80
73572;DHT22;61854;48.510;-2.770;2023-10-13T14:37:10;21.60;90.50
73572;DHT22;61854;48.510;-2.770;2023-10-13T14:39:41;21.60;90.80
73572;DHT22;61854;48.510;-2.770;2023-10-13T14:42:07;21.60;90.00
73572;DHT22;61854;48.510;-2.770;2023-10-13T14:44:33;21.60;90.40
73572;DHT22;61854;48.510;-2.770;2023-10-13T14:47:03;21.70;90.00
73572;DHT22;61854;48.510;-2.770;2023-10-13T14:49:31;21.90;87.60
73572;DHT22;61854;48.510;-2.770;2023-10-13T14:51:57;21.60;87.70
73572;DHT22;61854;48.510;-2.770;2023-10-13T14:54:25;21.60;89.00
73572;DHT22;61854;48.510;-2.770;2023-10-13T14:57:00;21.40;88.90
73572;DHT22;61854;48.510;-2.770;2023-10-13T14:59:27;21.30;88.60
73572;DHT22;61854;48.510;-2.770;2023-10-13T15:01:53;21.20;89.40
73572;DHT22;61854;48.510;-2.770;2023-10-13T15:04:19;21.30;88.50
73572;DHT22;61854;48.510;-2.770;2023-10-13T15:06:50;21.80;86.60
73572;DHT22;61854;48.510;-2.770;2023-10-13T15:09:15;21.60;84.60
73572;DHT22;61854;48.510;-2.770;2023-10-13T15:11:49;21.80;83.50
73572;DHT22;61854;48.510;-2.770;2023-10-13T15:14:18;21.40;86.50
73572;DHT22;61854;48.510;-2.770;2023-10-13T15:16:45;21.30;87.90
73572;DHT22;61854;48.510;-2.770;2023-10-13T15:19:11;21.30;90.30
73572;DHT22;61854;48.510;-2.770;2023-10-13T15:21:37;21.40;90.30
73572;DHT22;61854;48.510;-2.770;2023-10-13T15:24:06;21.20;91.30
73572;DHT22;61854;48.510;-2.770;2023-10-13T15:26:53;21.00;92.70
73572;DHT22;61854;48.510;-2.770;2023-10-13T15:29:27;21.10;93.50
73572;DHT22;61854;48.510;-2.770;2023-10-13T15:32:00;20.90;93.90
73572;DHT22;61854;48.510;-2.770;2023-10-13T15:34:29;21.10;94.00
73572;DHT22;61854;48.510;-2.770;2023-10-13T15:36:57;20.90;95.20
73572;DHT22;61854;48.510;-2.770;2023-10-13T15:39:23;20.80;95.40
73572;DHT22;61854;48.510;-2.770;2023-10-13T15:41:52;20.70;95.90
73572;DHT22;61854;48.510;-2.770;2023-10-13T15:44:21;20.50;96.80
73572;DHT22;61854;48.510;-2.770;2023-10-13T15:46:56;20.40;97.30
73572;DHT22;61854;48.510;-2.770;2023-10-13T15:49:22;20.30;99.50
73572;DHT22;61854;48.510;-2.770;2023-10-13T15:51:48;20.10;99.90
73572;DHT22;61854;48.510;-2.770;2023-10-13T15:54:17;19.90;99.90
73572;DHT22;61854;48.510;-2.770;2023-10-13T15:56:47;19.80;99.90
73572;DHT22;61854;48.510;-2.770;2023-10-13T15:59:13;19.70;99.90
73572;DHT22;61854;48.510;-2.770;2023-10-13T16:01:39;19.80;99.90